Time;durP1;ratioP1;P1;durP2;ratioP2;P2;SDS_P1;SDS_P2;PMS_P1;PMS_P2;Temp;Humidity;BMP_temperature;BMP_pressure;BME280_temperature;BME280_humidity;BME280_pressure;Samples;Min_cycle;Max_cycle;Signal;HPM_P1;HPM_P2
2022/01/06 00:01:04;;;;;;;22.48;4.55;;;;;;;;;;4968536;28;20497;-82
2022/01/06 00:03:31;;;;;;;26.73;5.57;;;;;;;;;;4968185;28;20034;-84
2022/01/06 00:05:57;;;;;;;19.52;4.20;;;;;;;;;;4964552;28;20031;-82
2022/01/06 00:08:23;;;;;;;23.10;4.93;;;;;;;;;;4968011;28;20026;-80
2022/01/06 00:10:52;;;;;;;18.77;5.13;;;;;;;;;;4960816;28;20051;-82
2022/01/06 00:23:17;;;;;;;24.08;3.97;;;;;;;;;;4968942;28;20043;-80
2022/01/06 00:24:18;;;;;;;29.92;5.45;;;;;;;;;;4970437;28;20089;-77
2022/01/06 00:26:44;;;;;;;22.35;4.68;;;;;;;;;;4965838;28;20031;-78
2022/01/06 00:29:10;;;;;;;30.88;4.47;;;;;;;;;;4956425;28;20105;-79
2022/01/06 00:31:40;;;;;;;18.25;4.22;;;;;;;;;;4968557;28;20018;-77
2022/01/06 00:34:10;;;;;;;;;;;;;;;;;;4963332;28;20536;-78
2022/01/06 00:36:36;;;;;;;16.92;4.32;;;;;;;;;;4973007;28;19917;-78
2022/01/06 00:39:03;;;;;;;23.60;4.15;;;;;;;;;;4970852;28;20018;-78
2022/01/06 00:41:29;;;;;;;27.13;4.40;;;;;;;;;;4966176;28;20091;-78
2022/01/06 00:43:55;;;;;;;25.67;3.80;;;;;;;;;;4966011;28;20031;-78
2022/01/06 00:46:21;;;;;;;24.05;5.05;;;;;;;;;;4962031;28;20213;-78
2022/01/06 00:48:47;;;;;;;26.27;3.75;;;;;;;;;;4964480;28;20110;-78
2022/01/06 00:51:13;;;;;;;31.45;4.72;;;;;;;;;;4965241;28;20089;-78
2022/01/06 00:53:39;;;;;;;21.85;4.20;;;;;;;;;;4957041;28;20109;-78
2022/01/06 00:56:07;;;;;;;34.65;4.65;;;;;;;;;;4963713;28;20514;-77
2022/01/06 00:58:33;;;;;;;38.33;5.28;;;;;;;;;;4961616;28;20504;-77
2022/01/06 01:01:00;;;;;;;21.42;3.70;;;;;;;;;;4966599;28;20055;-77
2022/01/06 01:03:27;;;;;;;21.45;3.40;;;;;;;;;;4963960;28;20114;-77
2022/01/06 01:05:54;;;;;;;22.65;4.47;;;;;;;;;;4969940;28;20030;-78
2022/01/06 01:08:20;;;;;;;22.48;3.90;;;;;;;;;;4965022;28;20027;-78
2022/01/06 01:10:47;;;;;;;22.52;4.55;;;;;;;;;;4965437;28;20022;-77
2022/01/06 01:13:14;;;;;;;25.80;5.05;;;;;;;;;;4960392;28;20038;-77
2022/01/06 01:15:47;;;;;;;19.77;4.20;;;;;;;;;;4967938;28;20026;-77
2022/01/06 01:18:17;;;;;;;23.63;4.03;;;;;;;;;;4965973;28;20106;-77
2022/01/06 01:20:43;;;;;;;21.55;4.65;;;;;;;;;;4964839;28;20057;-76
2022/01/06 01:23:09;;;;;;;19.23;3.47;;;;;;;;;;4962116;28;20054;-77
2022/01/06 01:25:35;;;;;;;29.67;4.00;;;;;;;;;;4961276;28;20031;-76
2022/01/06 01:28:03;;;;;;;22.88;4.22;;;;;;;;;;4963912;28;20102;-76
2022/01/06 01:30:32;;;;;;;21.00;5.07;;;;;;;;;;4962298;28;20015;-77
2022/01/06 01:32:59;;;;;;;22.38;3.67;;;;;;;;;;4968325;28;20513;-78
2022/01/06 01:35:32;;;;;;;26.25;4.30;;;;;;;;;;4958931;28;20122;-78
2022/01/06 01:37:58;;;;;;;26.42;3.65;;;;;;;;;;4973804;28;20084;-77
2022/01/06 01:40:25;;;;;;;23.75;4.65;;;;;;;;;;4960653;28;20808;-78
2022/01/06 01:42:51;;;;;;;23.35;3.53;;;;;;;;;;4965913;28;20062;-77
2022/01/06 01:45:17;;;;;;;24.58;4.50;;;;;;;;;;4961862;28;20154;-78
2022/01/06 01:47:45;;;;;;;22.30;5.53;;;;;;;;;;4969162;28;20035;-78
2022/01/06 01:50:16;;;;;;;25.67;4.75;;;;;;;;;;4964401;28;20086;-78
2022/01/06 01:52:46;;;;;;;24.42;4.25;;;;;;;;;;4961693;28;20023;-78
2022/01/06 01:55:19;;;;;;;18.00;3.97;;;;;;;;;;4967125;28;20033;-77
2022/01/06 01:57:45;;;;;;;27.63;4.40;;;;;;;;;;4962204;28;20101;-77
2022/01/06 02:00:12;;;;;;;19.10;3.72;;;;;;;;;;4963864;28;20069;-77
2022/01/06 02:02:38;;;;;;;31.52;5.15;;;;;;;;;;4964808;28;20473;-78
2022/01/06 02:05:05;;;;;;;20.50;3.20;;;;;;;;;;4955480;28;20122;-77
2022/01/06 02:07:33;;;;;;;24.38;3.67;;;;;;;;;;4967764;28;20096;-78
2022/01/06 02:09:59;;;;;;;25.25;3.47;;;;;;;;;;4968132;28;20031;-78
2022/01/06 02:12:26;;;;;;;25.52;4.68;;;;;;;;;;4967954;28;20110;-79
2022/01/06 02:14:52;;;;;;;22.77;3.38;;;;;;;;;;4977161;28;20086;-79
2022/01/06 02:17:19;;;;;;;17.90;3.63;;;;;;;;;;4969168;28;20373;-78
2022/01/06 02:19:58;;;;;;;23.50;5.45;;;;;;;;;;4972119;28;20096;-78
2022/01/06 02:22:25;;;;;;;25.13;3.37;;;;;;;;;;4984728;28;20149;-79
2022/01/06 02:24:51;;;;;;;19.20;3.58;;;;;;;;;;4986467;28;20038;-79
2022/01/06 02:27:21;;;;;;;23.27;3.53;;;;;;;;;;4981607;28;20106;-79
2022/01/06 02:29:50;;;;;;;19.40;3.80;;;;;;;;;;4985633;28;20034;-79
2022/01/06 02:32:17;;;;;;;16.92;3.28;;;;;;;;;;4974087;28;20504;-79
2022/01/06 02:34:44;;;;;;;19.80;3.97;;;;;;;;;;4983495;28;20134;-78
2022/01/06 02:37:10;;;;;;;16.77;3.97;;;;;;;;;;4987084;28;20022;-78
2022/01/06 02:39:36;;;;;;;30.25;4.93;;;;;;;;;;4984941;28;20057;-78
2022/01/06 02:42:03;;;;;;;19.58;3.60;;;;;;;;;;4968251;28;20062;-78
2022/01/06 02:44:29;;;;;;;24.10;3.92;;;;;;;;;;4968666;28;20042;-78
2022/01/06 02:46:55;;;;;;;16.65;3.55;;;;;;;;;;4971771;28;20034;-78
2022/01/06 02:49:21;;;;;;;18.45;2.83;;;;;;;;;;4968802;28;20031;-78
2022/01/06 02:51:47;;;;;;;20.90;3.38;;;;;;;;;;4967716;28;20405;-79
2022/01/06 02:54:14;;;;;;;21.60;3.88;;;;;;;;;;4968910;28;20105;-79
2022/01/06 02:56:42;;;;;;;18.65;3.42;;;;;;;;;;4979336;28;20050;-79
2022/01/06 02:59:09;;;;;;;20.00;4.13;;;;;;;;;;4985245;28;20072;-80
2022/01/06 03:01:47;;;;;;;26.17;4.47;;;;;;;;;;4983897;28;20109;-80
2022/01/06 03:04:13;;;;;;;21.98;3.85;;;;;;;;;;4983698;28;20058;-80
2022/01/06 03:06:40;;;;;;;19.58;3.80;;;;;;;;;;4965635;28;20137;-79
2022/01/06 03:09:06;;;;;;;23.35;4.13;;;;;;;;;;4969484;28;20129;-80
2022/01/06 03:11:33;;;;;;;30.48;3.83;;;;;;;;;;4971504;28;20058;-78
2022/01/06 03:14:00;;;;;;;18.83;3.20;;;;;;;;;;4969991;28;20397;-76
2022/01/06 03:16:26;;;;;;;21.95;3.83;;;;;;;;;;4972032;28;20026;-79
2022/01/06 03:18:52;;;;;;;20.77;2.75;;;;;;;;;;4971204;28;20103;-80
2022/01/06 03:21:18;;;;;;;17.60;3.75;;;;;;;;;;4972738;28;20035;-78
2022/01/06 03:23:44;;;;;;;18.88;3.80;;;;;;;;;;4963530;28;20088;-78
2022/01/06 03:26:10;;;;;;;19.25;3.35;;;;;;;;;;4967637;28;20030;-82
2022/01/06 03:28:36;;;;;;;16.98;3.05;;;;;;;;;;4971187;28;20220;-84
2022/01/06 03:31:02;;;;;;;19.45;3.35;;;;;;;;;;4972529;28;20030;-79
2022/01/06 03:33:28;;;;;;;27.20;3.92;;;;;;;;;;4970948;28;20034;-79
2022/01/06 03:35:55;;;;;;;21.42;3.50;;;;;;;;;;4979155;28;20084;-79
2022/01/06 03:38:21;;;;;;;15.57;3.00;;;;;;;;;;4984837;28;20034;-78
2022/01/06 03:40:47;;;;;;;21.65;3.22;;;;;;;;;;4974744;28;20034;-79
2022/01/06 03:43:14;;;;;;;21.05;3.03;;;;;;;;;;4989982;28;20034;-79
2022/01/06 03:45:40;;;;;;;18.55;2.78;;;;;;;;;;4985902;28;20109;-79
2022/01/06 03:48:06;;;;;;;13.98;2.78;;;;;;;;;;4971102;28;20111;-77
2022/01/06 03:50:32;;;;;;;20.67;3.38;;;;;;;;;;4971908;28;20805;-77
2022/01/06 03:52:58;;;;;;;20.60;3.92;;;;;;;;;;4968982;28;20082;-77
2022/01/06 03:55:24;;;;;;;34.58;4.70;;;;;;;;;;4952293;28;20874;-76
2022/01/06 03:57:50;;;;;;;16.00;3.83;;;;;;;;;;4973221;28;20414;-78
2022/01/06 04:00:18;;;;;;;21.70;3.40;;;;;;;;;;4969813;28;20584;-78
2022/01/06 04:02:46;;;;;;;19.25;3.28;;;;;;;;;;4974978;28;20893;-80
2022/01/06 04:05:12;;;;;;;17.80;3.90;;;;;;;;;;4970766;28;20081;-80
2022/01/06 04:07:39;;;;;;;21.63;3.58;;;;;;;;;;4980565;28;20023;-80
2022/01/06 04:10:08;;;;;;;24.85;3.95;;;;;;;;;;4989737;28;20026;-81
2022/01/06 04:12:36;;;;;;;20.17;3.63;;;;;;;;;;4984505;28;20464;-80
2022/01/06 04:15:04;;;;;;;20.00;3.97;;;;;;;;;;4985558;28;20050;-79
2022/01/06 04:17:30;;;;;;;19.55;2.80;;;;;;;;;;4977930;28;20022;-79
2022/01/06 04:19:56;;;;;;;14.77;3.08;;;;;;;;;;4989515;28;20432;-79
2022/01/06 04:22:22;;;;;;;23.25;4.80;;;;;;;;;;4982717;28;20074;-79
2022/01/06 04:24:48;;;;;;;17.95;3.60;;;;;;;;;;4958408;28;20565;-78
2022/01/06 04:27:17;;;;;;;20.48;3.17;;;;;;;;;;4965407;28;20026;-79
2022/01/06 04:29:43;;;;;;;15.48;2.28;;;;;;;;;;4981000;28;20049;-80
2022/01/06 04:32:09;;;;;;;26.67;4.47;;;;;;;;;;4973900;28;20027;-79
2022/01/06 04:34:35;;;;;;;20.70;3.60;;;;;;;;;;4991937;28;20528;-79
2022/01/06 04:37:01;;;;;;;19.70;2.53;;;;;;;;;;4994053;28;20027;-79
2022/01/06 04:39:28;;;;;;;16.63;3.38;;;;;;;;;;4975503;28;20035;-79
2022/01/06 04:41:54;;;;;;;19.05;3.22;;;;;;;;;;4973751;28;20177;-80
2022/01/06 04:44:20;;;;;;;18.55;4.03;;;;;;;;;;4977833;28;20612;-80
2022/01/06 04:46:46;;;;;;;17.23;2.47;;;;;;;;;;4991617;28;20157;-80
2022/01/06 04:49:12;;;;;;;20.67;3.67;;;;;;;;;;4977963;28;20027;-80
2022/01/06 04:51:38;;;;;;;24.55;4.28;;;;;;;;;;4986665;28;20484;-80
2022/01/06 04:54:04;;;;;;;17.42;3.20;;;;;;;;;;4965579;28;20032;-79
2022/01/06 04:56:37;;;;;;;21.48;3.97;;;;;;;;;;4988485;28;20022;-77
2022/01/06 04:59:04;;;;;;;14.73;3.00;;;;;;;;;;4982272;28;20074;-78
2022/01/06 05:01:30;;;;;;;24.05;3.53;;;;;;;;;;4988718;28;20517;-78
2022/01/06 05:03:56;;;;;;;22.00;3.58;;;;;;;;;;4977344;28;20039;-78
2022/01/06 05:06:22;;;;;;;24.52;3.45;;;;;;;;;;4972992;28;20362;-78
2022/01/06 05:08:48;;;;;;;21.85;3.22;;;;;;;;;;4975519;28;20481;-78
2022/01/06 05:11:14;;;;;;;20.83;3.22;;;;;;;;;;4983481;28;20113;-79
2022/01/06 05:13:40;;;;;;;18.55;3.08;;;;;;;;;;4988708;28;20085;-78
2022/01/06 05:25:51;;;;;;;20.80;3.13;;;;;;;;;;4984230;28;20044;-79
2022/01/06 05:55:45;;;;;;;22.92;3.55;;;;;;;;;;5009765;28;20060;-77
2022/01/06 05:58:11;;;;;;;22.40;3.10;;;;;;;;;;5014843;28;20033;-77
2022/01/06 06:00:37;;;;;;;20.42;3.60;;;;;;;;;;5014670;28;20108;-78
2022/01/06 06:03:03;;;;;;;18.67;2.80;;;;;;;;;;5016879;28;20022;-78
2022/01/06 06:05:29;;;;;;;17.98;3.53;;;;;;;;;;5013177;28;20044;-77
2022/01/06 06:07:55;;;;;;;20.48;3.78;;;;;;;;;;5013449;28;20030;-77
2022/01/06 06:10:21;;;;;;;15.00;2.90;;;;;;;;;;4977204;28;20483;-78
2022/01/06 06:12:52;;;;;;;22.80;3.60;;;;;;;;;;5011832;28;20030;-78
2022/01/06 06:15:19;;;;;;;16.23;3.10;;;;;;;;;;5007751;28;20075;-77
2022/01/06 06:17:45;;;;;;;13.43;3.42;;;;;;;;;;5007111;28;20606;-78
2022/01/06 06:20:12;;;;;;;23.13;4.03;;;;;;;;;;5006742;28;20447;-78
2022/01/06 06:22:38;;;;;;;10.70;3.13;;;;;;;;;;5017061;28;20125;-78
2022/01/06 06:25:05;;;;;;;20.83;3.03;;;;;;;;;;5005990;28;20112;-80
2022/01/06 06:27:31;;;;;;;23.50;3.13;;;;;;;;;;5010680;28;20090;-81
2022/01/06 06:29:57;;;;;;;26.52;3.58;;;;;;;;;;5010366;28;20025;-79
2022/01/06 06:32:26;;;;;;;17.60;3.13;;;;;;;;;;5000950;28;20026;-79
2022/01/06 06:34:53;;;;;;;25.95;3.08;;;;;;;;;;5010863;28;20022;-77
2022/01/06 06:37:20;;;;;;;16.25;2.63;;;;;;;;;;4998462;28;20781;-78
2022/01/06 06:39:46;;;;;;;19.80;3.03;;;;;;;;;;4996798;28;20038;-79
2022/01/06 06:42:12;;;;;;;17.38;3.70;;;;;;;;;;5013906;28;20112;-78
2022/01/06 06:44:38;;;;;;;21.45;3.35;;;;;;;;;;5006801;28;20552;-82
2022/01/06 06:47:04;;;;;;;16.50;3.25;;;;;;;;;;5006781;28;20351;-77
2022/01/06 06:49:30;;;;;;;22.23;4.32;;;;;;;;;;5007102;28;20025;-76
2022/01/06 06:51:56;;;;;;;24.33;5.78;;;;;;;;;;5007542;28;20075;-76
2022/01/06 06:54:22;;;;;;;15.68;3.47;;;;;;;;;;5006799;28;20449;-76
2022/01/06 06:56:48;;;;;;;23.80;4.93;;;;;;;;;;5007151;28;20639;-77
2022/01/06 06:59:14;;;;;;;13.50;3.10;;;;;;;;;;5012039;28;20290;-74
2022/01/06 07:01:40;;;;;;;21.00;3.35;;;;;;;;;;5006432;28;20053;-76
2022/01/06 07:04:06;;;;;;;16.40;3.10;;;;;;;;;;5007573;28;20729;-77
2022/01/06 07:06:32;;;;;;;19.38;3.67;;;;;;;;;;4991035;28;20072;-76
2022/01/06 07:09:00;;;;;;;18.15;3.42;;;;;;;;;;5009254;28;20022;-77
2022/01/06 07:11:26;;;;;;;22.30;3.65;;;;;;;;;;5005572;28;20532;-77
2022/01/06 07:13:52;;;;;;;16.13;3.53;;;;;;;;;;5008062;28;20228;-77
2022/01/06 07:16:18;;;;;;;15.20;3.00;;;;;;;;;;5007979;28;20034;-78
2022/01/06 07:18:44;;;;;;;15.25;3.25;;;;;;;;;;5018326;28;20029;-77
2022/01/06 07:21:10;;;;;;;16.42;3.22;;;;;;;;;;5005553;28;20026;-77
2022/01/06 07:23:36;;;;;;;24.17;3.53;;;;;;;;;;5008550;28;20480;-77
2022/01/06 07:26:03;;;;;;;18.80;3.67;;;;;;;;;;5022429;28;20434;-77
2022/01/06 07:28:29;;;;;;;24.15;4.28;;;;;;;;;;5012854;28;20124;-76
2022/01/06 07:30:55;;;;;;;21.85;3.85;;;;;;;;;;5022569;28;20025;-77
2022/01/06 07:33:21;;;;;;;22.95;4.22;;;;;;;;;;5019852;28;20704;-77
2022/01/06 07:35:47;;;;;;;22.98;3.03;;;;;;;;;;5017929;28;20030;-77
2022/01/06 07:38:13;;;;;;;17.33;3.40;;;;;;;;;;5008846;28;20057;-77
2022/01/06 07:40:39;;;;;;;25.48;6.45;;;;;;;;;;5013753;28;20130;-78
2022/01/06 07:43:06;;;;;;;20.48;4.15;;;;;;;;;;5008253;28;20029;-75
2022/01/06 07:45:32;;;;;;;23.45;4.55;;;;;;;;;;5013182;28;20052;-75
2022/01/06 07:48:02;;;;;;;26.75;5.57;;;;;;;;;;5005822;28;20076;-74
2022/01/06 07:50:30;;;;;;;18.17;3.75;;;;;;;;;;5011660;28;20022;-76
2022/01/06 07:52:56;;;;;;;23.35;3.88;;;;;;;;;;5007699;28;20030;-77
2022/01/06 07:55:22;;;;;;;20.08;4.70;;;;;;;;;;4996405;28;20124;-76
2022/01/06 07:57:49;;;;;;;22.60;4.35;;;;;;;;;;5011460;28;20105;-76
2022/01/06 08:00:16;;;;;;;14.13;3.35;;;;;;;;;;5011684;28;20026;-77
2022/01/06 08:02:42;;;;;;;22.63;5.65;;;;;;;;;;5010534;28;20061;-76
2022/01/06 08:05:11;;;;;;;12.90;3.15;;;;;;;;;;5013032;28;20069;-77
2022/01/06 08:07:37;;;;;;;27.98;4.38;;;;;;;;;;4995221;28;20342;-77
2022/01/06 08:10:04;;;;;;;20.05;4.75;;;;;;;;;;5012395;28;20404;-77
2022/01/06 08:12:30;;;;;;;23.05;5.50;;;;;;;;;;5009436;28;20025;-77
2022/01/06 08:14:56;;;;;;;20.50;4.10;;;;;;;;;;5011524;28;20021;-76
2022/01/06 08:17:22;;;;;;;21.10;5.32;;;;;;;;;;5011293;28;20552;-77
2022/01/06 08:19:48;;;;;;;19.70;5.03;;;;;;;;;;5011121;28;20034;-77
2022/01/06 08:22:14;;;;;;;16.90;5.00;;;;;;;;;;5015020;28;20025;-77
2022/01/06 08:24:40;;;;;;;19.85;5.35;;;;;;;;;;5011772;28;20037;-78
2022/01/06 08:27:08;;;;;;;16.92;5.05;;;;;;;;;;5019687;28;20029;-77
2022/01/06 08:29:41;;;;;;;21.33;5.88;;;;;;;;;;5013378;28;20484;-77
2022/01/06 08:32:07;;;;;;;18.52;6.03;;;;;;;;;;5004551;28;20076;-77
2022/01/06 08:34:34;;;;;;;24.65;7.45;;;;;;;;;;5010677;28;20033;-78
2022/01/06 08:37:00;;;;;;;23.55;5.65;;;;;;;;;;5016939;28;20050;-77
2022/01/06 08:39:26;;;;;;;23.15;6.90;;;;;;;;;;5012204;28;20436;-78
2022/01/06 08:41:53;;;;;;;23.48;4.22;;;;;;;;;;5012064;28;20030;-77
2022/01/06 08:44:20;;;;;;;23.75;5.38;;;;;;;;;;5007761;28;20052;-78
2022/01/06 08:46:46;;;;;;;34.05;15.95;;;;;;;;;;5015289;28;20081;-77
2022/01/06 08:49:13;;;;;;;28.60;6.85;;;;;;;;;;5001823;28;20018;-77
2022/01/06 08:51:39;;;;;;;23.25;5.80;;;;;;;;;;5010885;28;20216;-76
2022/01/06 08:54:06;;;;;;;22.83;4.38;;;;;;;;;;5009037;28;20084;-77
2022/01/06 08:56:33;;;;;;;23.08;6.43;;;;;;;;;;5018611;28;20045;-76
2022/01/06 08:58:59;;;;;;;17.55;4.35;;;;;;;;;;5015660;28;20136;-77
2022/01/06 09:01:25;;;;;;;20.67;6.50;;;;;;;;;;5013706;28;20085;-77
2022/01/06 09:03:51;;;;;;;22.55;6.80;;;;;;;;;;5019781;28;20030;-77
2022/01/06 09:06:17;;;;;;;19.88;6.40;;;;;;;;;;5012765;28;20033;-75
2022/01/06 09:08:43;;;;;;;20.20;4.97;;;;;;;;;;5019347;28;20188;-76
2022/01/06 09:11:09;;;;;;;28.77;7.93;;;;;;;;;;5029836;28;20108;-77
2022/01/06 09:13:35;;;;;;;13.77;4.65;;;;;;;;;;5003837;28;20128;-75
2022/01/06 09:16:01;;;;;;;21.27;5.80;;;;;;;;;;5010429;28;20057;-76
2022/01/06 09:18:27;;;;;;;16.92;5.18;;;;;;;;;;5014019;28;20383;-76
2022/01/06 09:20:53;;;;;;;28.00;9.13;;;;;;;;;;5012284;28;20065;-76
2022/01/06 09:23:19;;;;;;;28.02;11.15;;;;;;;;;;5016063;28;20022;-76
2022/01/06 09:25:45;;;;;;;30.63;10.10;;;;;;;;;;5030013;28;20154;-75
2022/01/06 09:28:11;;;;;;;22.08;12.38;;;;;;;;;;4997796;28;20033;-75
2022/01/06 09:30:38;;;;;;;28.95;15.02;;;;;;;;;;4990327;28;20057;-76
2022/01/06 09:33:04;;;;;;;26.42;11.18;;;;;;;;;;5006377;28;20030;-76
2022/01/06 09:35:31;;;;;;;33.05;17.30;;;;;;;;;;5004226;28;20034;-72
2022/01/06 09:37:57;;;;;;;40.42;19.08;;;;;;;;;;5005869;28;20099;-74
2022/01/06 09:40:23;;;;;;;51.28;24.20;;;;;;;;;;5004917;28;20025;-74
2022/01/06 09:42:49;;;;;;;48.28;24.15;;;;;;;;;;5006026;28;20885;-73
2022/01/06 09:45:16;;;;;;;35.92;17.65;;;;;;;;;;4986862;28;20037;-74
2022/01/06 09:47:42;;;;;;;32.33;16.55;;;;;;;;;;5004087;28;20017;-75
2022/01/06 09:50:09;;;;;;;32.25;16.08;;;;;;;;;;5006520;28;20105;-75
2022/01/06 09:52:36;;;;;;;31.65;15.60;;;;;;;;;;5005037;28;20069;-75
2022/01/06 09:55:03;;;;;;;27.40;11.10;;;;;;;;;;4985429;28;20049;-75
2022/01/06 09:57:30;;;;;;;26.88;9.35;;;;;;;;;;4998070;28;20599;-75
2022/01/06 09:59:56;;;;;;;26.50;11.25;;;;;;;;;;4979797;28;20018;-75
2022/01/06 10:02:32;;;;;;;17.38;6.25;;;;;;;;;;4997695;28;20052;-74
2022/01/06 10:04:59;;;;;;;16.73;4.47;;;;;;;;;;5001047;28;20112;-74
2022/01/06 10:07:25;;;;;;;12.20;3.95;;;;;;;;;;4996762;28;20022;-73
2022/01/06 10:09:51;;;;;;;15.88;3.42;;;;;;;;;;5000235;28;20021;-74
2022/01/06 10:12:17;;;;;;;12.88;3.38;;;;;;;;;;4978702;28;20087;-74
2022/01/06 10:14:49;;;;;;;9.07;2.80;;;;;;;;;;5000342;28;20727;-73
2022/01/06 10:17:29;;;;;;;12.07;3.50;;;;;;;;;;4993576;28;20030;-72
2022/01/06 10:20:01;;;;;;;15.70;4.00;;;;;;;;;;4981502;28;20080;-74
2022/01/06 10:22:27;;;;;;;14.73;3.20;;;;;;;;;;4980429;28;20265;-72
2022/01/06 10:24:54;;;;;;;12.23;3.08;;;;;;;;;;4996768;28;20045;-72
2022/01/06 10:27:21;;;;;;;10.55;2.90;;;;;;;;;;4996589;28;20060;-75
2022/01/06 10:29:51;;;;;;;9.93;2.95;;;;;;;;;;5002895;28;20149;-72
2022/01/06 10:32:25;;;;;;;12.32;3.50;;;;;;;;;;5000679;28;20036;-71
2022/01/06 10:34:52;;;;;;;17.08;3.67;;;;;;;;;;4983508;28;20033;-73
2022/01/06 10:37:22;;;;;;;10.50;3.47;;;;;;;;;;4997429;28;20036;-72
2022/01/06 10:39:49;;;;;;;15.48;3.20;;;;;;;;;;5004537;28;20033;-73
2022/01/06 10:42:16;;;;;;;12.60;3.70;;;;;;;;;;5004207;28;20025;-74
2022/01/06 10:45:05;;;;;;;13.45;3.53;;;;;;;;;;4999716;28;20025;-74
2022/01/06 10:47:31;;;;;;;11.57;4.05;;;;;;;;;;4994079;28;20046;-73
2022/01/06 10:50:15;;;;;;;10.63;4.45;;;;;;;;;;5001291;28;20018;-73
2022/01/06 10:52:51;;;;;;;15.50;3.90;;;;;;;;;;4996384;28;20037;-73
2022/01/06 10:55:18;;;;;;;12.43;3.30;;;;;;;;;;4998016;28;20274;-73
2022/01/06 10:57:53;;;;;;;12.90;3.65;;;;;;;;;;4996239;28;20117;-72
2022/01/06 11:00:20;;;;;;;10.18;2.88;;;;;;;;;;4985370;28;20031;-73
2022/01/06 11:02:46;;;;;;;17.20;3.90;;;;;;;;;;4975206;28;20117;-73
2022/01/06 11:05:12;;;;;;;15.27;3.30;;;;;;;;;;4975384;28;20042;-73
2022/01/06 11:07:38;;;;;;;19.13;3.72;;;;;;;;;;4977795;28;20149;-72
2022/01/06 11:10:16;;;;;;;9.80;2.67;;;;;;;;;;4994719;28;20101;-73
2022/01/06 11:12:42;;;;;;;12.88;3.63;;;;;;;;;;4996679;28;20050;-72
2022/01/06 11:15:10;;;;;;;14.38;4.82;;;;;;;;;;4996184;28;20073;-72
2022/01/06 11:17:36;;;;;;;11.13;3.95;;;;;;;;;;4996740;28;20096;-73
2022/01/06 11:20:03;;;;;;;14.02;3.67;;;;;;;;;;4996633;28;21086;-71
2022/01/06 11:22:29;;;;;;;11.02;2.42;;;;;;;;;;4997347;28;20122;-71
2022/01/06 11:24:56;;;;;;;13.68;3.08;;;;;;;;;;4980869;28;20247;-72
2022/01/06 11:27:32;;;;;;;11.20;3.00;;;;;;;;;;4999209;28;20469;-71
2022/01/06 11:30:08;;;;;;;12.13;3.28;;;;;;;;;;4998958;28;20670;-71
2022/01/06 11:32:34;;;;;;;14.05;3.80;;;;;;;;;;5001763;28;20090;-72
2022/01/06 11:35:04;;;;;;;10.38;2.70;;;;;;;;;;4986513;28;20030;-73
2022/01/06 11:37:48;;;;;;;14.77;3.55;;;;;;;;;;5002989;28;20891;-71
2022/01/06 11:40:16;;;;;;;15.15;3.65;;;;;;;;;;4997388;28;20026;-71
2022/01/06 11:42:52;;;;;;;14.30;3.50;;;;;;;;;;4989422;28;20117;-70
2022/01/06 11:45:19;;;;;;;12.23;2.70;;;;;;;;;;5000499;28;20129;-70
2022/01/06 11:47:46;;;;;;;12.60;3.78;;;;;;;;;;4982285;28;20066;-71
2022/01/06 11:50:13;;;;;;;12.65;3.33;;;;;;;;;;4997645;28;20044;-71
2022/01/06 11:52:54;;;;;;;10.68;3.80;;;;;;;;;;4983880;28;20152;-71
2022/01/06 11:55:21;;;;;;;16.08;3.90;;;;;;;;;;4996177;28;20148;-70
2022/01/06 11:57:47;;;;;;;13.98;3.15;;;;;;;;;;4999282;28;20062;-71
2022/01/06 12:00:20;;;;;;;13.63;3.33;;;;;;;;;;4982159;28;20084;-71
2022/01/06 12:03:00;;;;;;;10.80;3.30;;;;;;;;;;4997765;28;20030;-72
2022/01/06 12:05:26;;;;;;;10.48;3.30;;;;;;;;;;4980522;28;20053;-69
2022/01/06 12:07:52;;;;;;;10.48;2.72;;;;;;;;;;4995547;28;20065;-71
2022/01/06 12:10:20;;;;;;;12.82;2.95;;;;;;;;;;5000607;28;20563;-71
2022/01/06 12:12:48;;;;;;;11.77;3.40;;;;;;;;;;4981658;28;20498;-71
2022/01/06 12:15:15;;;;;;;9.98;3.22;;;;;;;;;;5000021;28;20106;-72
2022/01/06 12:17:45;;;;;;;14.38;2.75;;;;;;;;;;5001221;28;20026;-71
2022/01/06 12:20:11;;;;;;;12.88;3.20;;;;;;;;;;4999859;28;20065;-71
2022/01/06 12:22:37;;;;;;;12.05;3.78;;;;;;;;;;4999894;28;20084;-70
2022/01/06 12:25:04;;;;;;;15.07;3.40;;;;;;;;;;5000121;28;20045;-73
2022/01/06 12:27:31;;;;;;;12.02;3.40;;;;;;;;;;4981590;28;20137;-73
2022/01/06 12:29:57;;;;;;;13.32;3.30;;;;;;;;;;5001943;28;20473;-72
2022/01/06 12:32:23;;;;;;;11.95;3.58;;;;;;;;;;4980281;28;20123;-73
2022/01/06 12:34:53;;;;;;;8.93;2.58;;;;;;;;;;5000182;28;20151;-72
2022/01/06 12:37:27;;;;;;;15.20;3.85;;;;;;;;;;4997072;28;20022;-72
2022/01/06 12:39:53;;;;;;;8.98;2.70;;;;;;;;;;4997777;28;20042;-71
2022/01/06 12:42:19;;;;;;;14.25;3.72;;;;;;;;;;4997039;28;20041;-72
2022/01/06 12:44:45;;;;;;;11.88;3.05;;;;;;;;;;4996004;28;20201;-73
2022/01/06 12:47:11;;;;;;;15.07;2.90;;;;;;;;;;5000969;28;20035;-73
2022/01/06 12:49:38;;;;;;;16.25;4.00;;;;;;;;;;5000821;28;20109;-73
2022/01/06 12:52:06;;;;;;;9.45;3.45;;;;;;;;;;5001046;28;21549;-73
2022/01/06 12:54:34;;;;;;;11.75;3.20;;;;;;;;;;4981414;28;20035;-73
2022/01/06 12:57:02;;;;;;;10.15;3.20;;;;;;;;;;4997833;28;20046;-72
2022/01/06 12:59:35;;;;;;;14.57;3.70;;;;;;;;;;5000542;28;20022;-72
2022/01/06 13:02:15;;;;;;;12.70;2.97;;;;;;;;;;4999292;28;20048;-73
2022/01/06 13:04:45;;;;;;;12.98;4.07;;;;;;;;;;4997700;28;20037;-72
2022/01/06 13:07:13;;;;;;;15.15;4.20;;;;;;;;;;4998793;28;20034;-72
2022/01/06 13:09:40;;;;;;;13.68;3.42;;;;;;;;;;4981674;28;20461;-74
2022/01/06 13:12:27;;;;;;;10.73;3.03;;;;;;;;;;5000506;28;20032;-73
2022/01/06 13:14:53;;;;;;;12.57;2.90;;;;;;;;;;4999168;28;20030;-73
2022/01/06 13:17:43;;;;;;;12.45;3.20;;;;;;;;;;4980129;28;20029;-73
2022/01/06 13:20:12;;;;;;;10.68;3.45;;;;;;;;;;4999411;28;20084;-74
2022/01/06 13:25:34;;;;;;;10.00;2.83;;;;;;;;;;4998401;28;20418;-73
2022/01/06 13:28:06;;;;;;;12.63;4.25;;;;;;;;;;4981390;28;20157;-74
2022/01/06 13:30:35;;;;;;;15.57;3.65;;;;;;;;;;4997241;28;20502;-73
2022/01/06 13:33:03;;;;;;;17.17;4.13;;;;;;;;;;4978818;28;20030;-74
2022/01/06 13:35:29;;;;;;;12.77;3.15;;;;;;;;;;4982894;28;20113;-74
2022/01/06 13:37:56;;;;;;;11.23;2.85;;;;;;;;;;5000240;28;20237;-73
2022/01/06 13:40:22;;;;;;;11.48;3.13;;;;;;;;;;4999142;28;20026;-74
2022/01/06 13:42:51;;;;;;;17.33;4.03;;;;;;;;;;4981531;28;20296;-72
2022/01/06 13:45:25;;;;;;;12.00;3.07;;;;;;;;;;4995990;28;20042;-71
2022/01/06 13:48:01;;;;;;;10.63;2.78;;;;;;;;;;5005244;28;20296;-72
2022/01/06 13:53:22;;;;;;;12.52;3.28;;;;;;;;;;5000526;28;20092;-72
2022/01/06 13:55:56;;;;;;;10.68;2.90;;;;;;;;;;4995987;28;20130;-70
2022/01/06 13:58:22;;;;;;;9.70;2.92;;;;;;;;;;4977541;28;20077;-69
2022/01/06 14:00:51;;;;;;;15.20;4.03;;;;;;;;;;4998058;28;20154;-71
2022/01/06 14:03:17;;;;;;;14.57;3.70;;;;;;;;;;4998460;28;20048;-72
2022/01/06 14:05:44;;;;;;;11.98;2.80;;;;;;;;;;4992428;28;20134;-71
2022/01/06 14:08:10;;;;;;;14.70;3.83;;;;;;;;;;4997910;28;20026;-71
2022/01/06 14:10:36;;;;;;;16.60;3.28;;;;;;;;;;4998006;28;20492;-69
2022/01/06 14:13:02;;;;;;;11.00;3.08;;;;;;;;;;4998899;28;20025;-72
2022/01/06 14:15:28;;;;;;;11.60;3.40;;;;;;;;;;5002439;28;20428;-70
2022/01/06 14:17:54;;;;;;;13.20;2.70;;;;;;;;;;4999531;28;20018;-74
2022/01/06 14:20:20;;;;;;;10.80;3.00;;;;;;;;;;4994454;28;20108;-72
2022/01/06 14:22:46;;;;;;;8.75;2.25;;;;;;;;;;4997112;28;20054;-72
2022/01/06 14:25:12;;;;;;;12.13;2.85;;;;;;;;;;4978553;28;20049;-72
2022/01/06 14:27:39;;;;;;;11.05;3.25;;;;;;;;;;4999910;28;20030;-71
2022/01/06 14:30:06;;;;;;;8.90;2.90;;;;;;;;;;4991661;28;20076;-73
2022/01/06 14:32:33;;;;;;;12.25;2.63;;;;;;;;;;4999430;28;20431;-74
2022/01/06 14:34:59;;;;;;;15.45;2.58;;;;;;;;;;4976154;28;20061;-71
2022/01/06 14:37:25;;;;;;;12.95;2.80;;;;;;;;;;4999196;28;20242;-68
2022/01/06 14:39:51;;;;;;;13.73;2.38;;;;;;;;;;4993815;28;20101;-72
2022/01/06 14:42:17;;;;;;;12.23;3.00;;;;;;;;;;4998525;28;20077;-71
2022/01/06 14:44:43;;;;;;;15.27;2.60;;;;;;;;;;4997890;28;20853;-73
2022/01/06 14:47:09;;;;;;;9.20;2.33;;;;;;;;;;4997910;28;20109;-72
2022/01/06 14:49:35;;;;;;;12.13;2.47;;;;;;;;;;4995994;28;20029;-72
2022/01/06 14:52:01;;;;;;;22.00;3.67;;;;;;;;;;4995987;28;20061;-71
2022/01/06 14:54:27;;;;;;;12.15;3.40;;;;;;;;;;4999509;28;20461;-72
2022/01/06 14:56:53;;;;;;;12.20;3.42;;;;;;;;;;5000073;28;20053;-73
2022/01/06 14:59:19;;;;;;;13.98;2.72;;;;;;;;;;4999430;28;20029;-69
2022/01/06 15:01:45;;;;;;;16.13;3.97;;;;;;;;;;4996724;28;20045;-71
2022/01/06 15:04:12;;;;;;;10.93;2.65;;;;;;;;;;5002433;28;20366;-71
2022/01/06 15:06:39;;;;;;;14.13;2.60;;;;;;;;;;4982788;28;20030;-74
2022/01/06 15:09:05;;;;;;;11.95;2.80;;;;;;;;;;5001712;28;20050;-69
2022/01/06 15:11:31;;;;;;;13.85;3.63;;;;;;;;;;4999941;28;20054;-72
2022/01/06 15:13:57;;;;;;;10.55;3.58;;;;;;;;;;4981432;28;20164;-71
2022/01/06 15:16:23;;;;;;;13.25;3.20;;;;;;;;;;5001621;28;20104;-71
2022/01/06 15:18:49;;;;;;;10.52;2.65;;;;;;;;;;5002270;28;20703;-70
2022/01/06 15:21:15;;;;;;;13.73;2.95;;;;;;;;;;4985162;28;20095;-72
2022/01/06 15:23:41;;;;;;;16.33;3.72;;;;;;;;;;5000330;28;20423;-73